sensor_id;sensor_type;location;lat;lon;timestamp;pressure;altitude;pressure_sealevel;temperature;humidity
48926;BME280;39838;59.938;30.642;2022-12-18T00:02:26;101735.72;;;-3.99;62.08
48926;BME280;39838;59.938;30.642;2022-12-18T00:04:54;101741.13;;;-3.95;61.69
48926;BME280;39838;59.938;30.642;2022-12-18T00:07:21;101730.69;;;-3.88;61.29
48926;BME280;39838;59.938;30.642;2022-12-18T00:09:49;101732.81;;;-3.82;60.94
48926;BME280;39838;59.938;30.642;2022-12-18T00:12:16;101742.31;;;-3.79;60.89
48926;BME280;39838;59.938;30.642;2022-12-18T00:14:43;101733.94;;;-3.78;60.90
48926;BME280;39838;59.938;30.642;2022-12-18T00:17:10;101743.03;;;-3.70;60.96
48926;BME280;39838;59.938;30.642;2022-12-18T00:19:37;101735.63;;;-3.67;60.96
48926;BME280;39838;59.938;30.642;2022-12-18T00:22:06;101739.19;;;-3.65;60.80
48926;BME280;39838;59.938;30.642;2022-12-18T00:24:33;101734.16;;;-3.75;60.89
48926;BME280;39838;59.938;30.642;2022-12-18T00:27:00;101737.31;;;-3.90;61.03
48926;BME280;39838;59.938;30.642;2022-12-18T00:29:27;101742.72;;;-4.07;60.93
48926;BME280;39838;59.938;30.642;2022-12-18T00:31:54;101736.94;;;-4.16;61.54
48926;BME280;39838;59.938;30.642;2022-12-18T00:34:22;101737.94;;;-4.14;61.54
48926;BME280;39838;59.938;30.642;2022-12-18T00:36:49;101733.34;;;-4.08;61.74
48926;BME280;39838;59.938;30.642;2022-12-18T00:39:17;101719.66;;;-4.10;61.40
48926;BME280;39838;59.938;30.642;2022-12-18T00:41:44;101725.72;;;-4.08;61.35
48926;BME280;39838;59.938;30.642;2022-12-18T00:44:29;101712.03;;;-4.10;61.59
48926;BME280;39838;59.938;30.642;2022-12-18T00:46:56;101724.59;;;-4.12;61.28
48926;BME280;39838;59.938;30.642;2022-12-18T00:49:23;101716.16;;;-4.22;61.60
48926;BME280;39838;59.938;30.642;2022-12-18T00:51:50;101722.00;;;-4.23;61.85
48926;BME280;39838;59.938;30.642;2022-12-18T00:54:19;101724.16;;;-4.28;61.36
48926;BME280;39838;59.938;30.642;2022-12-18T00:56:46;101715.13;;;-4.46;61.72
48926;BME280;39838;59.938;30.642;2022-12-18T00:59:13;101713.47;;;-4.46;62.77
48926;BME280;39838;59.938;30.642;2022-12-18T01:01:40;101711.41;;;-4.40;62.79
48926;BME280;39838;59.938;30.642;2022-12-18T01:04:08;101713.91;;;-4.29;62.20
48926;BME280;39838;59.938;30.642;2022-12-18T01:06:35;101711.31;;;-4.19;62.21
48926;BME280;39838;59.938;30.642;2022-12-18T01:09:02;101712.22;;;-4.19;61.66
48926;BME280;39838;59.938;30.642;2022-12-18T01:11:31;101699.81;;;-4.26;62.13
48926;BME280;39838;59.938;30.642;2022-12-18T01:13:58;101710.94;;;-4.24;61.94
48926;BME280;39838;59.938;30.642;2022-12-18T01:16:25;101707.16;;;-4.29;62.09
48926;BME280;39838;59.938;30.642;2022-12-18T01:18:53;101716.44;;;-4.29;61.44
48926;BME280;39838;59.938;30.642;2022-12-18T01:21:22;101705.28;;;-4.31;62.44
48926;BME280;39838;59.938;30.642;2022-12-18T01:23:51;101703.50;;;-4.32;61.62
48926;BME280;39838;59.938;30.642;2022-12-18T01:26:19;101711.25;;;-4.31;61.93
48926;BME280;39838;59.938;30.642;2022-12-18T01:28:48;101707.34;;;-4.48;62.04
48926;BME280;39838;59.938;30.642;2022-12-18T01:31:17;101708.97;;;-4.70;61.64
48926;BME280;39838;59.938;30.642;2022-12-18T01:33:48;101706.94;;;-4.74;62.38
48926;BME280;39838;59.938;30.642;2022-12-18T01:36:17;101704.16;;;-4.77;62.15
48926;BME280;39838;59.938;30.642;2022-12-18T01:38:45;101709.63;;;-4.73;62.59
48926;BME280;39838;59.938;30.642;2022-12-18T01:41:13;101705.03;;;-4.67;62.65
48926;BME280;39838;59.938;30.642;2022-12-18T01:43:49;101705.66;;;-4.59;62.46
48926;BME280;39838;59.938;30.642;2022-12-18T01:46:18;101693.69;;;-4.50;63.03
48926;BME280;39838;59.938;30.642;2022-12-18T01:48:47;101694.56;;;-4.49;62.17
48926;BME280;39838;59.938;30.642;2022-12-18T01:51:15;101704.97;;;-4.46;62.24
48926;BME280;39838;59.938;30.642;2022-12-18T01:53:43;101696.69;;;-4.44;62.23
48926;BME280;39838;59.938;30.642;2022-12-18T01:56:13;101709.75;;;-4.39;62.19
48926;BME280;39838;59.938;30.642;2022-12-18T01:58:50;101703.03;;;-4.38;62.53
48926;BME280;39838;59.938;30.642;2022-12-18T02:01:20;101698.94;;;-4.36;62.43
48926;BME280;39838;59.938;30.642;2022-12-18T02:03:48;101706.81;;;-4.33;62.15
48926;BME280;39838;59.938;30.642;2022-12-18T02:06:19;101706.81;;;-4.33;62.58
48926;BME280;39838;59.938;30.642;2022-12-18T02:08:56;101694.13;;;-4.33;62.16
48926;BME280;39838;59.938;30.642;2022-12-18T02:11:33;101697.56;;;-4.33;62.38
48926;BME280;39838;59.938;30.642;2022-12-18T02:14:14;101709.59;;;-4.30;62.05
48926;BME280;39838;59.938;30.642;2022-12-18T02:16:47;101676.78;;;-4.39;62.13
48926;BME280;39838;59.938;30.642;2022-12-18T02:19:27;101700.16;;;-4.21;62.04
48926;BME280;39838;59.938;30.642;2022-12-18T02:22:10;101682.06;;;-4.36;61.70
48926;BME280;39838;59.938;30.642;2022-12-18T02:24:51;101693.88;;;-4.36;61.50
48926;BME280;39838;59.938;30.642;2022-12-18T02:27:23;101685.56;;;-4.46;62.26
48926;BME280;39838;59.938;30.642;2022-12-18T02:29:51;101671.09;;;-4.47;62.35
48926;BME280;39838;59.938;30.642;2022-12-18T02:32:24;101661.84;;;-4.46;62.39
48926;BME280;39838;59.938;30.642;2022-12-18T02:34:54;101685.97;;;-4.29;62.60
48926;BME280;39838;59.938;30.642;2022-12-18T02:37:23;101675.16;;;-4.27;62.19
48926;BME280;39838;59.938;30.642;2022-12-18T02:39:55;101680.63;;;-4.22;61.76
48926;BME280;39838;59.938;30.642;2022-12-18T02:42:25;101678.13;;;-4.32;62.59
48926;BME280;39838;59.938;30.642;2022-12-18T02:44:54;101677.38;;;-4.31;61.82
48926;BME280;39838;59.938;30.642;2022-12-18T02:47:23;101654.16;;;-4.36;62.40
48926;BME280;39838;59.938;30.642;2022-12-18T02:49:58;101676.00;;;-4.16;62.34
48926;BME280;39838;59.938;30.642;2022-12-18T02:52:34;101671.31;;;-4.12;61.74
48926;BME280;39838;59.938;30.642;2022-12-18T02:55:14;101672.69;;;-4.15;62.27
48926;BME280;39838;59.938;30.642;2022-12-18T02:57:49;101660.97;;;-4.25;62.55
48926;BME280;39838;59.938;30.642;2022-12-18T03:00:19;101668.41;;;-4.16;62.01
48926;BME280;39838;59.938;30.642;2022-12-18T03:02:50;101675.44;;;-4.24;62.55
48926;BME280;39838;59.938;30.642;2022-12-18T03:05:22;101668.22;;;-4.29;62.57
48926;BME280;39838;59.938;30.642;2022-12-18T03:07:56;101679.31;;;-4.39;62.60
48926;BME280;39838;59.938;30.642;2022-12-18T03:10:26;101680.72;;;-4.43;62.86
48926;BME280;39838;59.938;30.642;2022-12-18T03:13:00;101681.97;;;-4.37;62.84
48926;BME280;39838;59.938;30.642;2022-12-18T03:15:30;101671.22;;;-4.45;62.59
48926;BME280;39838;59.938;30.642;2022-12-18T03:18:04;101678.84;;;-4.55;63.15
48926;BME280;39838;59.938;30.642;2022-12-18T03:20:34;101688.41;;;-4.63;62.92
48926;BME280;39838;59.938;30.642;2022-12-18T03:23:06;101669.03;;;-4.73;63.08
48926;BME280;39838;59.938;30.642;2022-12-18T03:25:38;101689.66;;;-4.58;63.45
48926;BME280;39838;59.938;30.642;2022-12-18T03:28:10;101688.38;;;-4.53;62.69
48926;BME280;39838;59.938;30.642;2022-12-18T03:30:40;101689.50;;;-4.49;62.86
48926;BME280;39838;59.938;30.642;2022-12-18T03:33:12;101684.00;;;-4.44;62.61
48926;BME280;39838;59.938;30.642;2022-12-18T03:35:43;101685.75;;;-4.32;62.90
48926;BME280;39838;59.938;30.642;2022-12-18T03:38:11;101678.06;;;-4.22;62.43
48926;BME280;39838;59.938;30.642;2022-12-18T03:40:45;101675.06;;;-4.28;62.07
48926;BME280;39838;59.938;30.642;2022-12-18T03:43:21;101676.72;;;-4.29;62.15
48926;BME280;39838;59.938;30.642;2022-12-18T03:45:55;101666.44;;;-4.52;62.10
48926;BME280;39838;59.938;30.642;2022-12-18T03:48:30;101685.06;;;-4.52;62.54
48926;BME280;39838;59.938;30.642;2022-12-18T03:51:05;101678.22;;;-4.53;62.44
48926;BME280;39838;59.938;30.642;2022-12-18T03:53:37;101681.38;;;-4.45;62.74
48926;BME280;39838;59.938;30.642;2022-12-18T03:56:08;101681.06;;;-4.60;63.03
48926;BME280;39838;59.938;30.642;2022-12-18T03:58:38;101687.34;;;-4.55;62.77
48926;BME280;39838;59.938;30.642;2022-12-18T04:01:10;101659.88;;;-4.60;63.04
48926;BME280;39838;59.938;30.642;2022-12-18T04:03:39;101680.97;;;-4.40;62.57
48926;BME280;39838;59.938;30.642;2022-12-18T04:06:07;101679.13;;;-4.30;62.85
48926;BME280;39838;59.938;30.642;2022-12-18T04:08:35;101683.91;;;-4.23;62.33
48926;BME280;39838;59.938;30.642;2022-12-18T04:11:04;101684.09;;;-4.32;62.87
48926;BME280;39838;59.938;30.642;2022-12-18T04:13:34;101677.41;;;-4.42;62.93
48926;BME280;39838;59.938;30.642;2022-12-18T04:16:03;101679.75;;;-4.55;62.92
48926;BME280;39838;59.938;30.642;2022-12-18T04:18:30;101651.03;;;-4.76;62.78
48926;BME280;39838;59.938;30.642;2022-12-18T04:20:58;101678.69;;;-4.79;63.35
48926;BME280;39838;59.938;30.642;2022-12-18T04:23:25;101674.50;;;-4.78;63.37
48926;BME280;39838;59.938;30.642;2022-12-18T04:25:52;101668.38;;;-4.70;63.67
48926;BME280;39838;59.938;30.642;2022-12-18T04:28:19;101671.84;;;-4.48;63.45
48926;BME280;39838;59.938;30.642;2022-12-18T04:30:49;101665.97;;;-4.36;62.85
48926;BME280;39838;59.938;30.642;2022-12-18T04:33:18;101673.94;;;-4.54;62.66
48926;BME280;39838;59.938;30.642;2022-12-18T04:35:45;101671.66;;;-4.61;63.38
48926;BME280;39838;59.938;30.642;2022-12-18T04:38:12;101668.66;;;-4.77;63.19
48926;BME280;39838;59.938;30.642;2022-12-18T04:40:39;101677.81;;;-4.89;63.41
48926;BME280;39838;59.938;30.642;2022-12-18T04:43:06;101671.75;;;-4.91;64.02
48926;BME280;39838;59.938;30.642;2022-12-18T04:45:34;101670.00;;;-4.92;63.84
48926;BME280;39838;59.938;30.642;2022-12-18T04:48:01;101682.31;;;-5.07;63.54
48926;BME280;39838;59.938;30.642;2022-12-18T04:50:31;101685.63;;;-5.29;64.44
48926;BME280;39838;59.938;30.642;2022-12-18T04:52:58;101687.03;;;-5.32;64.79
48926;BME280;39838;59.938;30.642;2022-12-18T04:55:25;101688.66;;;-5.23;64.35
48926;BME280;39838;59.938;30.642;2022-12-18T04:57:52;101682.06;;;-5.10;64.53
48926;BME280;39838;59.938;30.642;2022-12-18T05:00:20;101671.75;;;-5.02;64.23
48926;BME280;39838;59.938;30.642;2022-12-18T05:02:47;101669.13;;;-5.03;64.31
48926;BME280;39838;59.938;30.642;2022-12-18T05:05:14;101679.91;;;-5.16;64.37
48926;BME280;39838;59.938;30.642;2022-12-18T05:07:43;101681.06;;;-5.12;64.52
48926;BME280;39838;59.938;30.642;2022-12-18T05:10:10;101682.34;;;-5.28;64.41
48926;BME280;39838;59.938;30.642;2022-12-18T05:12:38;101681.56;;;-5.37;65.11
48926;BME280;39838;59.938;30.642;2022-12-18T05:15:24;101674.84;;;-5.36;64.39
48926;BME280;39838;59.938;30.642;2022-12-18T05:17:51;101679.44;;;-5.32;64.86
48926;BME280;39838;59.938;30.642;2022-12-18T05:20:18;101683.22;;;-5.27;64.61
48926;BME280;39838;59.938;30.642;2022-12-18T05:22:46;101686.25;;;-5.31;64.14
48926;BME280;39838;59.938;30.642;2022-12-18T05:25:14;101681.31;;;-5.50;64.70
48926;BME280;39838;59.938;30.642;2022-12-18T05:27:41;101682.72;;;-5.64;64.98
48926;BME280;39838;59.938;30.642;2022-12-18T05:32:36;101680.69;;;-5.88;65.66
48926;BME280;39838;59.938;30.642;2022-12-18T05:35:06;101673.09;;;-5.98;66.34
48926;BME280;39838;59.938;30.642;2022-12-18T05:37:33;101679.41;;;-6.03;66.00
48926;BME280;39838;59.938;30.642;2022-12-18T05:40:03;101681.81;;;-6.05;66.63
48926;BME280;39838;59.938;30.642;2022-12-18T05:42:30;101681.69;;;-5.96;66.96
48926;BME280;39838;59.938;30.642;2022-12-18T05:44:57;101681.97;;;-5.93;66.25
48926;BME280;39838;59.938;30.642;2022-12-18T05:47:24;101677.53;;;-5.96;66.13
48926;BME280;39838;59.938;30.642;2022-12-18T05:49:51;101680.50;;;-6.10;66.37
48926;BME280;39838;59.938;30.642;2022-12-18T05:52:18;101674.06;;;-6.17;66.63
48926;BME280;39838;59.938;30.642;2022-12-18T05:54:46;101672.16;;;-6.19;67.13
48926;BME280;39838;59.938;30.642;2022-12-18T05:57:14;101681.63;;;-6.17;67.16
48926;BME280;39838;59.938;30.642;2022-12-18T05:59:42;101680.22;;;-6.23;67.18
48926;BME280;39838;59.938;30.642;2022-12-18T06:02:09;101674.56;;;-6.21;67.14
48926;BME280;39838;59.938;30.642;2022-12-18T06:04:36;101673.69;;;-6.21;67.02
48926;BME280;39838;59.938;30.642;2022-12-18T06:07:03;101672.16;;;-6.19;67.34
48926;BME280;39838;59.938;30.642;2022-12-18T06:09:30;101685.09;;;-6.16;67.28
48926;BME280;39838;59.938;30.642;2022-12-18T06:11:57;101685.84;;;-6.07;66.69
48926;BME280;39838;59.938;30.642;2022-12-18T06:14:26;101696.09;;;-6.06;66.87
48926;BME280;39838;59.938;30.642;2022-12-18T06:16:53;101695.56;;;-6.12;67.20
48926;BME280;39838;59.938;30.642;2022-12-18T06:19:20;101691.28;;;-6.13;66.72
48926;BME280;39838;59.938;30.642;2022-12-18T06:21:47;101691.03;;;-6.16;66.68
48926;BME280;39838;59.938;30.642;2022-12-18T06:24:16;101695.69;;;-6.20;66.91
48926;BME280;39838;59.938;30.642;2022-12-18T06:26:43;101690.97;;;-6.26;66.96
48926;BME280;39838;59.938;30.642;2022-12-18T06:29:10;101691.88;;;-6.25;67.27
48926;BME280;39838;59.938;30.642;2022-12-18T06:31:39;101693.41;;;-6.17;67.42
48926;BME280;39838;59.938;30.642;2022-12-18T06:34:06;101694.56;;;-6.14;66.97
48926;BME280;39838;59.938;30.642;2022-12-18T06:36:33;101687.25;;;-6.00;67.16
48926;BME280;39838;59.938;30.642;2022-12-18T06:39:00;101692.84;;;-5.94;66.67
48926;BME280;39838;59.938;30.642;2022-12-18T06:41:27;101691.56;;;-5.99;66.58
48926;BME280;39838;59.938;30.642;2022-12-18T06:43:54;101692.94;;;-6.03;66.67
48926;BME280;39838;59.938;30.642;2022-12-18T06:46:21;101689.66;;;-6.02;66.89
48926;BME280;39838;59.938;30.642;2022-12-18T06:48:50;101688.28;;;-5.98;66.63
48926;BME280;39838;59.938;30.642;2022-12-18T06:51:18;101682.97;;;-6.01;66.54
48926;BME280;39838;59.938;30.642;2022-12-18T06:53:46;101672.56;;;-6.15;67.06
48926;BME280;39838;59.938;30.642;2022-12-18T06:56:13;101683.16;;;-6.29;66.87
48926;BME280;39838;59.938;30.642;2022-12-18T06:58:41;101685.63;;;-6.39;67.29
48926;BME280;39838;59.938;30.642;2022-12-18T07:01:09;101656.50;;;-6.54;67.69
48926;BME280;39838;59.938;30.642;2022-12-18T07:03:37;101682.56;;;-6.45;67.76
48926;BME280;39838;59.938;30.642;2022-12-18T07:06:13;101678.69;;;-6.42;67.69
48926;BME280;39838;59.938;30.642;2022-12-18T07:08:40;101678.91;;;-6.49;67.48
48926;BME280;39838;59.938;30.642;2022-12-18T07:11:07;101678.84;;;-6.59;67.88
48926;BME280;39838;59.938;30.642;2022-12-18T07:13:34;101680.38;;;-6.61;67.96
48926;BME280;39838;59.938;30.642;2022-12-18T07:16:07;101676.88;;;-6.72;68.06
48926;BME280;39838;59.938;30.642;2022-12-18T07:18:34;101675.63;;;-6.77;68.48
48926;BME280;39838;59.938;30.642;2022-12-18T07:21:07;101679.38;;;-6.82;68.41
48926;BME280;39838;59.938;30.642;2022-12-18T07:23:35;101669.63;;;-6.88;68.81
48926;BME280;39838;59.938;30.642;2022-12-18T07:26:03;101680.06;;;-6.93;68.67
48926;BME280;39838;59.938;30.642;2022-12-18T07:28:30;101678.28;;;-6.94;68.98
48926;BME280;39838;59.938;30.642;2022-12-18T07:30:58;101679.81;;;-6.96;69.17
48926;BME280;39838;59.938;30.642;2022-12-18T07:33:25;101678.94;;;-6.97;68.95
48926;BME280;39838;59.938;30.642;2022-12-18T07:35:52;101673.78;;;-6.88;69.13
48926;BME280;39838;59.938;30.642;2022-12-18T07:38:21;101675.56;;;-6.87;69.04
48926;BME280;39838;59.938;30.642;2022-12-18T07:40:48;101682.50;;;-6.84;68.91
48926;BME280;39838;59.938;30.642;2022-12-18T07:43:15;101670.91;;;-6.82;68.93
48926;BME280;39838;59.938;30.642;2022-12-18T07:45:43;101669.88;;;-6.84;68.79
48926;BME280;39838;59.938;30.642;2022-12-18T07:48:10;101655.31;;;-6.97;69.06
48926;BME280;39838;59.938;30.642;2022-12-18T07:50:37;101674.53;;;-6.89;68.72
48926;BME280;39838;59.938;30.642;2022-12-18T07:53:05;101673.31;;;-6.84;69.12
48926;BME280;39838;59.938;30.642;2022-12-18T07:55:33;101669.88;;;-6.84;68.89
48926;BME280;39838;59.938;30.642;2022-12-18T07:58:02;101667.56;;;-6.92;69.04
48926;BME280;39838;59.938;30.642;2022-12-18T08:00:29;101672.91;;;-6.89;69.27
48926;BME280;39838;59.938;30.642;2022-12-18T08:02:57;101665.63;;;-6.75;69.20
48926;BME280;39838;59.938;30.642;2022-12-18T08:05:24;101669.19;;;-6.73;69.01
48926;BME280;39838;59.938;30.642;2022-12-18T08:07:51;101667.94;;;-6.68;68.97
48926;BME280;39838;59.938;30.642;2022-12-18T08:10:18;101671.22;;;-6.69;69.06
48926;BME280;39838;59.938;30.642;2022-12-18T08:12:49;101684.34;;;-6.73;68.79
48926;BME280;39838;59.938;30.642;2022-12-18T08:15:16;101678.16;;;-6.77;68.88
48926;BME280;39838;59.938;30.642;2022-12-18T08:17:43;101676.22;;;-6.79;69.13
48926;BME280;39838;59.938;30.642;2022-12-18T08:20:11;101670.78;;;-6.84;69.26
48926;BME280;39838;59.938;30.642;2022-12-18T08:22:41;101671.44;;;-6.76;69.46
48926;BME280;39838;59.938;30.642;2022-12-18T08:25:08;101677.66;;;-6.73;69.25
48926;BME280;39838;59.938;30.642;2022-12-18T08:27:36;101686.31;;;-6.61;69.37
48926;BME280;39838;59.938;30.642;2022-12-18T08:30:06;101674.28;;;-6.63;69.18
48926;BME280;39838;59.938;30.642;2022-12-18T08:32:34;101660.25;;;-6.60;68.96
48926;BME280;39838;59.938;30.642;2022-12-18T08:35:02;101655.34;;;-6.58;69.28
48926;BME280;39838;59.938;30.642;2022-12-18T08:37:29;101642.91;;;-6.65;69.47
48926;BME280;39838;59.938;30.642;2022-12-18T08:39:56;101650.03;;;-6.61;70.00
48926;BME280;39838;59.938;30.642;2022-12-18T08:42:24;101642.66;;;-6.68;70.36
48926;BME280;39838;59.938;30.642;2022-12-18T08:45:10;101643.88;;;-6.83;70.26
48926;BME280;39838;59.938;30.642;2022-12-18T08:47:37;101642.56;;;-6.89;70.30
48926;BME280;39838;59.938;30.642;2022-12-18T08:50:05;101635.69;;;-7.00;70.86
48926;BME280;39838;59.938;30.642;2022-12-18T08:52:36;101631.50;;;-6.99;70.82
48926;BME280;39838;59.938;30.642;2022-12-18T08:55:04;101630.59;;;-7.10;70.98
48926;BME280;39838;59.938;30.642;2022-12-18T08:57:32;101621.44;;;-7.18;71.31
48926;BME280;39838;59.938;30.642;2022-12-18T08:59:59;101624.78;;;-7.28;71.50
48926;BME280;39838;59.938;30.642;2022-12-18T09:02:27;101651.47;;;-7.40;71.58
48926;BME280;39838;59.938;30.642;2022-12-18T09:04:54;101663.13;;;-7.32;71.87
48926;BME280;39838;59.938;30.642;2022-12-18T09:07:21;101660.41;;;-7.25;71.68
48926;BME280;39838;59.938;30.642;2022-12-18T09:09:48;101665.47;;;-7.25;71.35
48926;BME280;39838;59.938;30.642;2022-12-18T09:12:16;101660.63;;;-7.13;71.40
48926;BME280;39838;59.938;30.642;2022-12-18T09:14:43;101645.47;;;-7.13;70.93
48926;BME280;39838;59.938;30.642;2022-12-18T09:17:10;101651.47;;;-7.02;71.05
48926;BME280;39838;59.938;30.642;2022-12-18T09:19:38;101654.75;;;-7.03;70.57
48926;BME280;39838;59.938;30.642;2022-12-18T09:22:09;101636.25;;;-7.12;70.76
48926;BME280;39838;59.938;30.642;2022-12-18T09:24:36;101639.53;;;-7.13;70.94
48926;BME280;39838;59.938;30.642;2022-12-18T09:27:03;101638.94;;;-7.11;70.51
48926;BME280;39838;59.938;30.642;2022-12-18T09:29:30;101644.16;;;-7.18;70.53
48926;BME280;39838;59.938;30.642;2022-12-18T09:31:58;101630.94;;;-7.16;70.78
48926;BME280;39838;59.938;30.642;2022-12-18T09:34:25;101633.94;;;-7.20;70.80
48926;BME280;39838;59.938;30.642;2022-12-18T09:36:53;101631.47;;;-7.28;70.99
48926;BME280;39838;59.938;30.642;2022-12-18T09:39:20;101633.59;;;-7.33;71.25
48926;BME280;39838;59.938;30.642;2022-12-18T09:41:51;101640.38;;;-7.23;71.62
48926;BME280;39838;59.938;30.642;2022-12-18T09:44:25;101634.06;;;-7.18;71.15
48926;BME280;39838;59.938;30.642;2022-12-18T09:46:59;101617.84;;;-7.30;71.42
48926;BME280;39838;59.938;30.642;2022-12-18T09:49:30;101626.50;;;-7.37;71.70
48926;BME280;39838;59.938;30.642;2022-12-18T09:52:08;101626.78;;;-7.34;71.90
48926;BME280;39838;59.938;30.642;2022-12-18T09:54:39;101626.50;;;-7.37;71.54
48926;BME280;39838;59.938;30.642;2022-12-18T09:57:12;101598.09;;;-7.53;71.68
48926;BME280;39838;59.938;30.642;2022-12-18T09:59:42;101624.75;;;-7.38;71.72
48926;BME280;39838;59.938;30.642;2022-12-18T10:02:16;101617.50;;;-7.44;71.81
48926;BME280;39838;59.938;30.642;2022-12-18T10:04:50;101613.22;;;-7.45;71.78
48926;BME280;39838;59.938;30.642;2022-12-18T10:07:29;101587.00;;;-7.55;72.04
48926;BME280;39838;59.938;30.642;2022-12-18T10:10:02;101605.28;;;-7.39;72.06
48926;BME280;39838;59.938;30.642;2022-12-18T10:12:38;101606.88;;;-7.31;72.64
48926;BME280;39838;59.938;30.642;2022-12-18T10:15:10;101613.47;;;-7.23;71.86
48926;BME280;39838;59.938;30.642;2022-12-18T10:17:45;101592.41;;;-7.13;72.15
48926;BME280;39838;59.938;30.642;2022-12-18T10:20:20;101592.72;;;-7.00;71.54
48926;BME280;39838;59.938;30.642;2022-12-18T10:22:56;101590.97;;;-7.01;71.58
48926;BME280;39838;59.938;30.642;2022-12-18T10:25:29;101604.34;;;-7.02;71.49
48926;BME280;39838;59.938;30.642;2022-12-18T10:28:07;101593.28;;;-6.94;71.10
48926;BME280;39838;59.938;30.642;2022-12-18T10:30:38;101566.63;;;-7.19;71.17
48926;BME280;39838;59.938;30.642;2022-12-18T10:33:08;101592.16;;;-7.16;71.33
48926;BME280;39838;59.938;30.642;2022-12-18T10:35:41;101587.31;;;-7.23;71.83
48926;BME280;39838;59.938;30.642;2022-12-18T10:38:23;101556.34;;;-7.31;72.09
48926;BME280;39838;59.938;30.642;2022-12-18T10:40:53;101588.25;;;-7.12;71.67
48926;BME280;39838;59.938;30.642;2022-12-18T10:43:23;101579.75;;;-7.23;71.37
48926;BME280;39838;59.938;30.642;2022-12-18T10:46:04;101546.53;;;-7.47;72.21
48926;BME280;39838;59.938;30.642;2022-12-18T10:48:48;101582.19;;;-7.15;71.54
48926;BME280;39838;59.938;30.642;2022-12-18T10:51:23;101578.66;;;-7.17;71.76
48926;BME280;39838;59.938;30.642;2022-12-18T10:53:56;101564.94;;;-7.29;72.00
48926;BME280;39838;59.938;30.642;2022-12-18T10:56:24;101601.84;;;-7.21;72.05
48926;BME280;39838;59.938;30.642;2022-12-18T10:58:58;101582.53;;;-7.20;72.02
48926;BME280;39838;59.938;30.642;2022-12-18T11:01:26;101610.09;;;-7.13;71.81
48926;BME280;39838;59.938;30.642;2022-12-18T11:04:02;101599.84;;;-6.96;71.80
48926;BME280;39838;59.938;30.642;2022-12-18T11:06:34;101601.16;;;-6.80;71.38
48926;BME280;39838;59.938;30.642;2022-12-18T11:09:21;101586.16;;;-6.69;70.99
48926;BME280;39838;59.938;30.642;2022-12-18T11:11:49;101585.53;;;-6.66;70.58
48926;BME280;39838;59.938;30.642;2022-12-18T11:14:22;101574.53;;;-6.67;70.73
48926;BME280;39838;59.938;30.642;2022-12-18T11:16:51;101586.69;;;-6.63;70.56
48926;BME280;39838;59.938;30.642;2022-12-18T11:19:28;101593.81;;;-6.48;70.62
48926;BME280;39838;59.938;30.642;2022-12-18T11:21:58;101577.53;;;-6.42;70.37
48926;BME280;39838;59.938;30.642;2022-12-18T11:24:29;101578.66;;;-6.48;70.18
48926;BME280;39838;59.938;30.642;2022-12-18T11:26:58;101569.00;;;-6.52;70.30
48926;BME280;39838;59.938;30.642;2022-12-18T11:29:37;101568.25;;;-6.51;70.33
48926;BME280;39838;59.938;30.642;2022-12-18T11:32:29;101563.31;;;-6.60;70.61
48926;BME280;39838;59.938;30.642;2022-12-18T11:35:04;101565.59;;;-6.53;70.86
48926;BME280;39838;59.938;30.642;2022-12-18T11:37:39;101564.25;;;-6.49;70.20
48926;BME280;39838;59.938;30.642;2022-12-18T11:40:14;101518.56;;;-6.61;70.53
48926;BME280;39838;59.938;30.642;2022-12-18T11:42:46;101545.41;;;-6.43;70.40
48926;BME280;39838;59.938;30.642;2022-12-18T11:45:31;101530.97;;;-6.54;70.09
48926;BME280;39838;59.938;30.642;2022-12-18T11:48:04;101539.72;;;-6.40;70.41
48926;BME280;39838;59.938;30.642;2022-12-18T11:50:43;101539.34;;;-6.35;70.28
48926;BME280;39838;59.938;30.642;2022-12-18T11:53:13;101550.22;;;-6.25;70.22
48926;BME280;39838;59.938;30.642;2022-12-18T11:55:49;101546.31;;;-6.22;69.41
48926;BME280;39838;59.938;30.642;2022-12-18T11:58:34;101542.25;;;-6.20;70.24
48926;BME280;39838;59.938;30.642;2022-12-18T12:01:12;101534.19;;;-6.16;69.45
48926;BME280;39838;59.938;30.642;2022-12-18T12:03:55;101527.84;;;-6.21;69.71
48926;BME280;39838;59.938;30.642;2022-12-18T12:06:31;101520.75;;;-6.25;69.31
48926;BME280;39838;59.938;30.642;2022-12-18T12:09:10;101520.38;;;-6.29;69.96
48926;BME280;39838;59.938;30.642;2022-12-18T12:11:48;101452.81;;;-6.71;69.47
48926;BME280;39838;59.938;30.642;2022-12-18T12:14:31;101507.72;;;-6.40;69.43
48926;BME280;39838;59.938;30.642;2022-12-18T12:17:04;101501.78;;;-6.40;69.92
48926;BME280;39838;59.938;30.642;2022-12-18T12:19:43;101507.31;;;-6.44;70.35
48926;BME280;39838;59.938;30.642;2022-12-18T12:22:20;101506.44;;;-6.45;70.17
48926;BME280;39838;59.938;30.642;2022-12-18T12:24:59;101504.31;;;-6.40;69.92
48926;BME280;39838;59.938;30.642;2022-12-18T12:27:37;101505.84;;;-6.42;70.21
48926;BME280;39838;59.938;30.642;2022-12-18T12:30:11;101508.84;;;-6.46;70.02
48926;BME280;39838;59.938;30.642;2022-12-18T12:32:53;101503.41;;;-6.51;70.19
48926;BME280;39838;59.938;30.642;2022-12-18T12:35:32;101480.00;;;-6.58;70.25
48926;BME280;39838;59.938;30.642;2022-12-18T12:38:11;101511.75;;;-6.32;70.26
48926;BME280;39838;59.938;30.642;2022-12-18T12:40:41;101518.75;;;-6.29;70.08
48926;BME280;39838;59.938;30.642;2022-12-18T12:43:20;101518.34;;;-6.34;69.74
48926;BME280;39838;59.938;30.642;2022-12-18T12:45:52;101520.38;;;-6.40;70.07
48926;BME280;39838;59.938;30.642;2022-12-18T12:48:31;101514.03;;;-6.45;70.58
48926;BME280;39838;59.938;30.642;2022-12-18T12:51:01;101516.91;;;-6.50;71.07
48926;BME280;39838;59.938;30.642;2022-12-18T12:53:34;101522.97;;;-6.58;71.07
48926;BME280;39838;59.938;30.642;2022-12-18T12:56:03;101523.22;;;-6.66;71.29
48926;BME280;39838;59.938;30.642;2022-12-18T12:58:38;101529.94;;;-6.66;71.55
48926;BME280;39838;59.938;30.642;2022-12-18T13:01:12;101528.16;;;-6.67;72.18